Time;durP1;ratioP1;P1;durP2;ratioP2;P2;SDS_P1;SDS_P2;PMS_P1;PMS_P2;Temp;Humidity;BMP_temperature;BMP_pressure;BME280_temperature;BME280_humidity;BME280_pressure;Samples;Min_cycle;Max_cycle;Signal;HPM_P1;HPM_P2
2021/06/23 00:01:38;;;;;;;36.38;7.30;;;;;;;22.68;57.48;93866.25;5068294;28;20032;-71
2021/06/23 00:04:04;;;;;;;36.83;7.10;;;;;;;22.70;58.26;93868.56;5049228;28;20098;-71
2021/06/23 00:06:29;;;;;;;35.88;7.43;;;;;;;22.72;58.39;93874.41;5066920;28;20032;-71
2021/06/23 00:08:54;;;;;;;29.27;6.90;;;;;;;22.69;58.58;93872.44;5053577;28;20039;-71
2021/06/23 00:11:20;;;;;;;48.78;12.40;;;;;;;22.59;59.32;93879.44;5069256;28;20024;-71
2021/06/23 00:13:46;;;;;;;32.17;6.97;;;;;;;22.58;59.60;93880.63;5068416;28;20067;-71
2021/06/23 00:16:12;;;;;;;26.02;6.32;;;;;;;22.57;59.66;93884.47;5062521;28;20481;-71
2021/06/23 00:18:38;;;;;;;28.80;6.57;;;;;;;22.56;59.46;93894.56;5059027;28;20115;-71
2021/06/23 00:21:04;;;;;;;34.97;6.47;;;;;;;22.53;59.20;93897.28;5056617;28;20475;-76
2021/06/23 00:23:29;;;;;;;39.47;7.80;;;;;;;22.48;58.93;93893.03;5066827;28;20051;-71
2021/06/23 00:25:56;;;;;;;29.83;8.68;;;;;;;22.45;59.12;93893.81;5054188;28;20029;-71
2021/06/23 00:28:22;;;;;;;30.52;6.30;;;;;;;22.41;59.69;93901.19;5069020;28;20494;-71
2021/06/23 00:30:48;;;;;;;48.90;6.57;;;;;;;22.34;59.81;93891.06;5063128;28;20071;-71
2021/06/23 00:33:19;;;;;;;39.03;6.28;;;;;;;22.31;59.99;93896.50;5055700;28;20053;-71
2021/06/23 00:35:46;;;;;;;33.35;7.35;;;;;;;22.30;59.69;93906.59;5069047;28;20032;-71
2021/06/23 00:38:12;;;;;;;24.38;6.25;;;;;;;22.29;60.14;93906.97;5060041;28;20100;-72
2021/06/23 00:40:38;;;;;;;43.95;8.90;;;;;;;22.23;60.12;93901.94;5073735;28;20040;-71
2021/06/23 00:43:03;;;;;;;37.20;7.20;;;;;;;22.23;60.69;93896.50;5072911;28;20024;-71
2021/06/23 00:45:30;;;;;;;40.17;7.88;;;;;;;22.19;60.69;93892.97;5066197;28;20029;-71
2021/06/23 00:47:57;;;;;;;33.85;8.65;;;;;;;22.14;60.49;93885.19;5056496;28;20029;-71
2021/06/23 00:50:25;;;;;;;39.83;7.47;;;;;;;22.03;60.56;93892.56;5052610;28;20492;-71
2021/06/23 00:52:52;;;;;;;35.45;6.95;;;;;;;22.01;60.66;93897.59;5053585;28;20083;-71
2021/06/23 00:55:22;;;;;;;31.33;7.00;;;;;;;21.96;60.72;93887.13;5065472;28;20034;-71
2021/06/23 00:57:53;;;;;;;34.38;6.78;;;;;;;21.94;60.55;93890.22;5073466;28;20052;-71
2021/06/23 01:00:22;;;;;;;35.47;7.15;;;;;;;21.95;60.53;93885.56;5073673;28;20029;-71
2021/06/23 01:02:48;;;;;;;34.55;9.45;;;;;;;21.95;60.17;93875.50;5053931;28;20032;-71
2021/06/23 01:05:15;;;;;;;33.80;6.03;;;;;;;21.94;60.52;93873.16;5053544;28;20112;-71
2021/06/23 01:07:40;;;;;;;43.60;9.20;;;;;;;21.95;60.69;93870.06;5068881;28;20082;-71
2021/06/23 01:10:06;;;;;;;34.83;7.07;;;;;;;21.93;61.07;93871.63;5070145;28;20380;-71
2021/06/23 01:13:07;;;;;;;37.75;9.55;;;;;;;21.89;60.97;93870.84;5059620;28;20047;-71
2021/06/23 01:15:33;;;;;;;29.23;6.93;;;;;;;21.86;61.30;93866.97;5073476;28;20033;-71
2021/06/23 01:17:59;;;;;;;34.15;8.23;;;;;;;21.85;61.49;93870.81;5066337;28;20037;-71
2021/06/23 01:20:24;;;;;;;34.63;6.30;;;;;;;21.83;61.05;93865.78;5068989;28;20044;-71
2021/06/23 01:22:50;;;;;;;28.23;6.60;;;;;;;21.86;60.53;93872.38;5071039;28;20107;-71
2021/06/23 01:25:16;;;;;;;36.13;7.22;;;;;;;21.89;59.96;93865.41;5070228;28;20115;-71
2021/06/23 01:27:43;;;;;;;35.63;7.88;;;;;;;21.91;60.06;93854.94;5053268;28;20033;-71
2021/06/23 01:30:10;;;;;;;36.30;6.47;;;;;;;21.87;59.87;93860.34;5072473;28;20027;-71
2021/06/23 01:32:37;;;;;;;33.00;6.13;;;;;;;21.84;60.47;93863.84;5059283;28;20108;-71
2021/06/23 01:35:03;;;;;;;28.75;6.55;;;;;;;21.81;61.13;93849.09;5063238;28;20119;-71
2021/06/23 01:37:29;;;;;;;34.00;6.63;;;;;;;21.80;61.15;93855.69;5063297;28;20047;-71
2021/06/23 01:39:55;;;;;;;34.65;7.43;;;;;;;21.79;61.48;93856.06;5072828;28;20032;-71
2021/06/23 01:42:20;;;;;;;42.75;7.90;;;;;;;21.76;62.02;93857.63;5072727;28;20035;-71
2021/06/23 01:44:46;;;;;;;27.30;6.90;;;;;;;21.71;61.84;93866.13;5072886;28;20024;-71
2021/06/23 01:47:11;;;;;;;28.00;6.57;;;;;;;21.66;61.89;93854.88;5072110;28;20036;-71
2021/06/23 01:49:37;;;;;;;34.17;6.68;;;;;;;21.63;61.99;93870.75;5046243;28;20476;-71
2021/06/23 01:52:02;;;;;;;39.95;7.28;;;;;;;21.61;62.07;93878.50;5061070;28;20032;-71
2021/06/23 01:54:28;;;;;;;34.20;6.95;;;;;;;21.58;62.20;93883.94;5072351;28;20020;-71
2021/06/23 01:56:53;;;;;;;40.53;7.97;;;;;;;21.50;62.63;93882.34;5071433;28;20408;-71
2021/06/23 01:59:19;;;;;;;29.48;8.30;;;;;;;21.46;62.75;93885.03;5065162;28;20052;-71
2021/06/23 02:02:22;;;;;;;42.08;6.30;;;;;;;21.45;62.69;93886.19;5071422;28;20028;-69
2021/06/23 02:05:06;;;;;;;30.75;6.38;;;;;;;21.40;63.21;93878.41;5056401;28;20029;-71
2021/06/23 02:07:56;;;;;;;28.08;6.57;;;;;;;21.35;63.18;93884.97;5071819;28;20104;-71
2021/06/23 02:10:21;;;;;;;25.02;5.97;;;;;;;21.27;63.50;93880.69;5070846;28;20028;-71
2021/06/23 02:13:21;;;;;;;40.45;7.05;;;;;;;21.24;63.97;93881.44;5057596;28;20044;-71
2021/06/23 02:15:47;;;;;;;42.80;8.55;;;;;;;21.20;64.01;93880.63;5050996;28;20488;-71
2021/06/23 02:18:12;;;;;;;31.88;7.40;;;;;;;21.21;64.26;93884.91;5052118;28;20158;-71
2021/06/23 02:20:38;;;;;;;39.75;7.60;;;;;;;21.17;64.07;93893.00;5052386;28;20122;-71
2021/06/23 02:23:07;;;;;;;26.42;7.10;;;;;;;21.13;63.96;93903.06;5068548;28;20024;-71
2021/06/23 02:25:33;;;;;;;27.77;6.30;;;;;;;21.10;64.30;93898.38;5070671;28;20024;-71
2021/06/23 02:27:59;;;;;;;35.17;8.20;;;;;;;21.07;64.51;93906.50;5061262;28;20035;-71
2021/06/23 02:30:26;;;;;;;28.52;7.00;;;;;;;21.04;64.81;93894.47;5065289;28;20107;-71
2021/06/23 02:32:54;;;;;;;32.92;7.18;;;;;;;21.01;64.84;93901.44;5062076;28;20424;-71
2021/06/23 02:35:19;;;;;;;27.65;8.05;;;;;;;20.97;65.57;93891.75;5069722;28;20078;-70
2021/06/23 02:37:45;;;;;;;28.92;7.60;;;;;;;20.94;66.02;93898.66;5065065;28;20033;-70
2021/06/23 02:40:12;;;;;;;35.53;8.18;;;;;;;20.93;65.94;93899.84;5055705;28;20439;-70
2021/06/23 02:42:37;;;;;;;41.35;8.25;;;;;;;20.92;65.99;93886.66;5052110;28;20059;-71
2021/06/23 02:45:04;;;;;;;24.20;7.50;;;;;;;20.91;66.12;93888.59;5063719;28;20024;-71
2021/06/23 02:47:30;;;;;;;34.03;7.90;;;;;;;20.89;66.51;93893.63;5067478;28;20013;-71
2021/06/23 02:49:56;;;;;;;31.73;8.05;;;;;;;20.82;66.59;93913.31;5068771;28;20031;-71
2021/06/23 02:52:23;;;;;;;30.70;7.15;;;;;;;20.79;66.86;93907.88;5060564;28;20081;-70
2021/06/23 02:54:48;;;;;;;40.10;8.30;;;;;;;20.76;67.12;93911.31;5065818;28;20530;-71
2021/06/23 02:57:14;;;;;;;35.08;8.00;;;;;;;20.76;67.10;93920.25;5063317;28;20104;-71
2021/06/23 02:59:42;;;;;;;36.55;9.15;;;;;;;20.76;66.58;93927.56;5066858;28;20036;-72
2021/06/23 03:02:07;;;;;;;39.95;8.65;;;;;;;20.75;66.75;93921.38;5046228;28;20017;-71
2021/06/23 03:04:33;;;;;;;48.70;9.40;;;;;;;20.75;66.94;93936.88;5051512;28;20116;-71
2021/06/23 03:07:06;;;;;;;39.08;8.07;;;;;;;20.72;67.46;93937.59;5049977;28;20036;-71
2021/06/23 03:09:32;;;;;;;34.60;6.28;;;;;;;20.70;67.94;93939.91;5051202;28;20099;-71
2021/06/23 03:11:57;;;;;;;38.08;7.10;;;;;;;20.69;67.79;93935.66;5063918;28;20120;-72
2021/06/23 03:14:22;;;;;;;28.17;8.82;;;;;;;20.70;67.85;93939.91;5061451;28;20044;-71
2021/06/23 03:16:48;;;;;;;46.40;9.30;;;;;;;20.66;68.14;93933.69;5069597;28;20470;-74
2021/06/23 03:19:15;;;;;;;27.98;7.68;;;;;;;20.68;68.24;93944.94;5071084;28;20025;-73
2021/06/23 03:21:41;;;;;;;39.50;7.47;;;;;;;20.66;68.20;93939.09;5071285;28;20075;-73
2021/06/23 03:24:06;;;;;;;31.85;7.45;;;;;;;20.66;68.23;93944.53;5069549;28;20032;-74
2021/06/23 03:26:32;;;;;;;35.28;8.43;;;;;;;20.69;67.81;93941.06;5069546;28;20028;-74
2021/06/23 03:29:04;;;;;;;34.38;8.90;;;;;;;20.70;68.06;93940.72;5070636;28;20043;-74
2021/06/23 03:31:31;;;;;;;37.03;8.13;;;;;;;20.74;68.25;93954.25;5070925;28;20032;-74
2021/06/23 03:33:57;;;;;;;41.90;7.60;;;;;;;20.78;68.32;93952.34;5069057;28;20029;-74
2021/06/23 03:36:22;;;;;;;31.65;8.10;;;;;;;20.83;68.54;93962.84;5069569;28;20021;-74
2021/06/23 03:38:48;;;;;;;36.63;8.98;;;;;;;20.85;68.04;93963.25;5069335;28;20030;-74
2021/06/23 03:41:13;;;;;;;31.10;9.57;;;;;;;20.93;67.54;93969.50;5070843;28;20056;-74
2021/06/23 03:43:38;;;;;;;33.65;8.18;;;;;;;20.96;67.81;93974.16;5070524;28;20040;-74
2021/06/23 03:46:04;;;;;;;42.03;7.38;;;;;;;21.00;67.60;93975.75;5070593;28;20427;-74
2021/06/23 03:48:29;;;;;;;41.22;9.35;;;;;;;21.02;66.78;93978.88;5070394;28;20032;-74
2021/06/23 03:50:54;;;;;;;30.60;7.40;;;;;;;21.10;66.78;93978.91;5069158;28;20518;-74
2021/06/23 03:53:20;;;;;;;32.63;7.78;;;;;;;21.12;66.90;93984.72;5070513;28;20067;-74
2021/06/23 03:55:45;;;;;;;39.13;8.57;;;;;;;21.12;66.77;93979.31;5070339;28;20021;-74
2021/06/23 03:58:11;;;;;;;42.00;9.13;;;;;;;21.13;66.94;93973.53;5070299;28;20058;-74
2021/06/23 04:00:36;;;;;;;48.20;8.18;;;;;;;21.16;66.83;93970.03;5067280;28;20411;-74
2021/06/23 04:03:02;;;;;;;39.63;8.48;;;;;;;21.19;66.74;93982.84;5050343;28;20436;-73
2021/06/23 04:05:28;;;;;;;38.50;8.18;;;;;;;21.21;66.66;93980.53;5054892;28;20020;-74
2021/06/23 04:07:53;;;;;;;33.58;7.80;;;;;;;21.21;67.05;93983.25;5070268;28;20025;-74
2021/06/23 04:10:19;;;;;;;36.33;8.20;;;;;;;21.22;67.61;93986.72;5070173;28;20028;-73
2021/06/23 04:12:44;;;;;;;35.85;8.98;;;;;;;21.23;67.71;93991.78;5069786;28;20076;-74
2021/06/23 04:15:13;;;;;;;35.30;8.60;;;;;;;21.22;68.00;93997.56;5070015;28;20089;-74
2021/06/23 04:17:39;;;;;;;33.40;9.15;;;;;;;21.28;67.82;93998.78;5070065;28;20028;-74
2021/06/23 04:20:07;;;;;;;42.97;9.88;;;;;;;21.34;67.61;93999.97;5068725;28;20033;-74
2021/06/23 04:22:32;;;;;;;38.42;9.73;;;;;;;21.37;67.79;93998.44;5068770;28;20067;-74
2021/06/23 04:24:57;;;;;;;35.92;8.57;;;;;;;21.42;68.27;94004.31;5069969;28;20099;-74
2021/06/23 04:27:23;;;;;;;38.67;11.35;;;;;;;21.47;68.06;94018.66;5069993;28;20090;-74
2021/06/23 04:29:49;;;;;;;33.20;10.02;;;;;;;21.50;67.15;94015.97;5068746;28;20078;-74
2021/06/23 04:32:15;;;;;;;42.70;9.43;;;;;;;21.61;66.88;94013.31;5068582;28;20025;-73
2021/06/23 04:34:40;;;;;;;35.85;8.55;;;;;;;21.71;67.22;94009.88;5069948;28;20164;-74
2021/06/23 04:37:06;;;;;;;49.22;9.60;;;;;;;21.76;67.22;94004.13;5069941;28;20028;-74
2021/06/23 04:39:31;;;;;;;36.45;8.98;;;;;;;21.82;66.84;93999.88;5068780;28;20565;-74
2021/06/23 04:41:57;;;;;;;35.53;10.25;;;;;;;21.91;67.03;94006.88;5069639;28;20027;-74
2021/06/23 04:44:22;;;;;;;37.55;8.73;;;;;;;22.01;67.22;94011.59;5068682;28;20020;-74
2021/06/23 04:46:48;;;;;;;38.60;9.45;;;;;;;22.10;67.04;94005.78;5069941;28;20024;-74
2021/06/23 04:49:13;;;;;;;46.33;10.38;;;;;;;22.21;66.29;94001.94;5069819;28;20082;-74
2021/06/23 04:51:38;;;;;;;37.50;8.50;;;;;;;22.35;65.26;94003.97;5069905;28;20025;-73
2021/06/23 04:54:04;;;;;;;36.08;10.05;;;;;;;22.44;65.04;94009.03;5069553;28;20012;-74
2021/06/23 04:56:30;;;;;;;41.03;9.93;;;;;;;22.56;65.54;94014.09;5069701;28;20025;-74
2021/06/23 04:58:55;;;;;;;43.35;11.32;;;;;;;22.63;65.25;94016.81;5069864;28;20514;-74
2021/06/23 05:01:20;;;;;;;41.65;9.90;;;;;;;22.71;65.33;94017.59;5069831;28;20052;-73
2021/06/23 05:03:46;;;;;;;47.20;8.88;;;;;;;22.73;65.11;94022.66;5068348;28;20024;-73
2021/06/23 05:06:12;;;;;;;63.63;10.93;;;;;;;22.64;65.63;94017.59;5068355;28;20025;-73
2021/06/23 05:08:37;;;;;;;39.97;9.48;;;;;;;22.68;65.38;94023.81;5069608;28;20085;-73
2021/06/23 05:11:03;;;;;;;35.92;9.88;;;;;;;22.78;65.30;94033.91;5069480;28;20032;-74
2021/06/23 05:13:28;;;;;;;49.05;10.15;;;;;;;22.86;64.69;94028.47;5069155;28;20052;-73
2021/06/23 05:15:56;;;;;;;32.28;8.95;;;;;;;22.91;64.26;94031.59;5069549;28;20032;-73
2021/06/23 05:18:22;;;;;;;44.33;11.40;;;;;;;22.99;64.00;94026.94;5068420;28;20389;-73
2021/06/23 05:20:47;;;;;;;42.33;8.40;;;;;;;23.03;63.16;94027.75;5070476;28;20028;-73
2021/06/23 05:23:13;;;;;;;36.13;9.68;;;;;;;23.10;63.24;94021.53;5072808;28;20028;-73
2021/06/23 05:25:38;;;;;;;42.25;11.40;;;;;;;23.18;63.04;94023.06;5072965;28;20471;-73
2021/06/23 05:28:04;;;;;;;54.30;10.45;;;;;;;23.28;62.44;94022.28;5072855;28;20028;-74
2021/06/23 05:30:29;;;;;;;43.17;9.40;;;;;;;23.35;62.29;94029.69;5071644;28;20036;-74
2021/06/23 05:32:55;;;;;;;55.70;10.00;;;;;;;23.38;61.94;94026.16;5072940;28;20103;-74
2021/06/23 05:35:21;;;;;;;37.28;8.43;;;;;;;23.44;61.38;94019.94;5071370;28;20119;-74
2021/06/23 05:37:46;;;;;;;32.17;8.20;;;;;;;23.47;61.12;94029.28;5072513;28;20546;-74
2021/06/23 05:40:13;;;;;;;46.17;9.13;;;;;;;23.52;61.44;94028.88;5072263;28;20029;-74
2021/06/23 05:42:38;;;;;;;38.50;9.27;;;;;;;23.58;61.37;94023.81;5071315;28;20067;-74
2021/06/23 05:45:05;;;;;;;39.67;10.25;;;;;;;23.59;61.58;94036.22;5072621;28;20476;-75
2021/06/23 05:47:31;;;;;;;42.38;9.18;;;;;;;23.64;60.72;94038.56;5054554;28;20041;-74
2021/06/23 05:49:56;;;;;;;37.30;8.38;;;;;;;23.68;60.43;94038.56;5071344;28;20040;-74
2021/06/23 05:52:22;;;;;;;37.42;10.75;;;;;;;23.73;60.35;94035.44;5072512;28;20115;-74
2021/06/23 05:54:47;;;;;;;42.30;10.27;;;;;;;23.80;60.12;94030.78;5070811;28;20027;-74
2021/06/23 05:57:13;;;;;;;42.67;9.98;;;;;;;23.91;60.61;94035.41;5072316;28;20067;-74
2021/06/23 05:59:38;;;;;;;40.22;9.10;;;;;;;23.99;60.37;94026.81;5070701;28;20067;-73
2021/06/23 06:02:04;;;;;;;47.00;9.35;;;;;;;24.09;60.44;94036.13;5072343;28;20097;-83
2021/06/23 06:04:29;;;;;;;40.70;8.90;;;;;;;24.17;60.26;94037.66;5063716;28;20020;-82
2021/06/23 06:06:54;;;;;;;57.83;10.48;;;;;;;24.25;60.32;94032.94;5067478;28;20500;-82
2021/06/23 06:09:20;;;;;;;42.70;9.68;;;;;;;24.38;60.18;94042.22;5067448;28;20633;-81
2021/06/23 06:11:45;;;;;;;44.15;10.52;;;;;;;24.43;60.23;94030.91;5066212;28;20104;-79
2021/06/23 06:14:11;;;;;;;60.22;9.75;;;;;;;24.50;59.80;94034.78;5071706;28;20066;-75
2021/06/23 06:16:36;;;;;;;44.75;9.98;;;;;;;24.54;60.08;94044.50;5071592;28;20012;-75
2021/06/23 06:19:01;;;;;;;41.20;9.90;;;;;;;24.62;59.95;94035.09;5070369;28;20035;-75
2021/06/23 06:21:27;;;;;;;54.63;11.75;;;;;;;24.65;59.29;94040.94;5070377;28;20028;-75
2021/06/23 06:23:52;;;;;;;44.35;11.18;;;;;;;24.72;59.08;94038.94;5070114;28;20016;-75
2021/06/23 06:26:19;;;;;;;61.78;10.80;;;;;;;24.75;58.66;94035.44;5070102;28;20028;-75
2021/06/23 06:28:45;;;;;;;48.38;10.82;;;;;;;24.77;59.39;94044.00;5060129;28;20027;-75
2021/06/23 06:31:11;;;;;;;60.00;10.43;;;;;;;24.86;60.12;94040.03;5065486;28;20095;-74
2021/06/23 06:33:37;;;;;;;57.05;11.52;;;;;;;24.87;60.00;94050.53;5069497;28;20119;-75
2021/06/23 06:36:03;;;;;;;42.40;9.43;;;;;;;24.99;58.76;94052.81;5069647;28;20468;-75
2021/06/23 06:38:28;;;;;;;52.78;10.88;;;;;;;25.11;58.70;94056.22;5071050;28;20031;-75
2021/06/23 06:40:54;;;;;;;54.38;9.73;;;;;;;25.17;58.63;94057.34;5052382;28;20033;-75
2021/06/23 06:43:21;;;;;;;47.75;10.10;;;;;;;25.25;58.73;94058.09;5056244;28;20476;-75
2021/06/23 06:45:48;;;;;;;56.15;12.48;;;;;;;25.33;58.52;94063.06;5055287;28;20035;-75
2021/06/23 06:48:14;;;;;;;33.90;8.65;;;;;;;25.48;58.82;94065.69;5049906;28;20025;-75
2021/06/23 06:50:39;;;;;;;41.50;10.20;;;;;;;25.60;58.52;94063.25;5049977;28;20035;-77
2021/06/23 06:53:05;;;;;;;35.75;10.05;;;;;;;25.72;58.08;94070.13;5064757;28;20491;-76
2021/06/23 06:55:31;;;;;;;41.15;9.73;;;;;;;25.84;57.70;94071.56;5064023;28;20044;-77
2021/06/23 06:57:57;;;;;;;30.88;10.07;;;;;;;25.94;57.36;94059.03;5057210;28;20025;-79
2021/06/23 07:00:23;;;;;;;34.92;9.10;;;;;;;26.05;57.04;94067.88;5070987;28;20039;-77
2021/06/23 07:02:49;;;;;;;41.40;8.85;;;;;;;26.17;56.57;94064.59;5069420;28;20020;-78
2021/06/23 07:05:14;;;;;;;48.50;11.15;;;;;;;26.27;56.24;94070.34;5051681;28;20036;-79
2021/06/23 07:07:40;;;;;;;41.88;9.45;;;;;;;26.35;55.64;94071.81;5059654;28;20032;-79
2021/06/23 07:10:07;;;;;;;41.05;9.38;;;;;;;26.31;55.04;94065.63;5069414;28;20080;-77
2021/06/23 07:12:34;;;;;;;52.08;10.00;;;;;;;26.36;55.00;94067.91;5059094;28;20087;-78
2021/06/23 07:14:59;;;;;;;42.42;9.77;;;;;;;26.45;55.22;94068.19;5057613;28;20499;-79
2021/06/23 07:17:24;;;;;;;46.10;8.88;;;;;;;26.54;55.35;94079.41;5054746;28;20033;-78
2021/06/23 07:19:50;;;;;;;51.70;11.82;;;;;;;26.60;54.62;94069.59;5049071;28;20029;-78
2021/06/23 07:22:16;;;;;;;28.77;9.82;;;;;;;26.59;54.19;94067.25;5058803;28;20439;-79
2021/06/23 07:24:41;;;;;;;36.25;10.05;;;;;;;26.70;54.53;94065.16;5065603;28;20121;-76
2021/06/23 07:27:07;;;;;;;40.83;11.07;;;;;;;26.80;54.42;94068.91;5056420;28;20031;-76
2021/06/23 07:29:33;;;;;;;49.55;10.68;;;;;;;26.92;53.15;94070.31;5068959;28;20035;-77
2021/06/23 07:32:04;;;;;;;42.55;11.35;;;;;;;26.92;53.07;94065.63;5069072;28;20407;-76
2021/06/23 07:37:04;;;;;;;41.30;9.07;;;;;;;26.93;52.66;94066.41;5057154;28;20027;-79
2021/06/23 07:39:33;;;;;;;40.70;9.25;;;;;;;26.93;53.19;94067.19;5063244;28;20017;-80
2021/06/23 07:41:58;;;;;;;42.45;10.30;;;;;;;26.97;53.72;94069.88;5068971;28;20024;-79
2021/06/23 07:44:59;;;;;;;34.33;9.23;;;;;;;26.98;52.71;94071.41;5069546;28;20381;-79
2021/06/23 07:47:24;;;;;;;39.83;9.52;;;;;;;27.08;52.94;94072.44;5053578;28;20037;-81
2021/06/23 07:49:50;;;;;;;43.63;9.02;;;;;;;27.20;52.28;94069.91;5061463;28;20567;-81
2021/06/23 07:52:34;;;;;;;32.78;8.90;;;;;;;27.30;52.20;94070.19;5067478;28;20103;-80
2021/06/23 07:55:41;;;;;;;51.42;11.07;;;;;;;27.47;51.52;94071.06;5058632;28;20077;-77
2021/06/23 08:09:11;;;;;;;56.85;10.52;;;;;;;27.65;50.95;94084.47;5062437;28;20393;-81
2021/06/23 08:11:39;;;;;;;51.85;10.50;;;;;;;27.79;50.36;94087.72;5068143;28;20095;-81
2021/06/23 08:14:05;;;;;;;48.53;10.30;;;;;;;27.85;49.04;94079.03;5049683;28;20128;-81
2021/06/23 08:16:33;;;;;;;50.45;9.38;;;;;;;27.81;48.82;94084.56;5071522;28;20051;-79
2021/06/23 08:18:58;;;;;;;30.30;10.30;;;;;;;27.85;49.23;94087.25;5052002;28;20044;-78
2021/06/23 08:21:24;;;;;;;32.30;8.27;;;;;;;27.95;49.12;94086.31;5049273;28;20033;-80
2021/06/23 08:23:49;;;;;;;34.05;7.57;;;;;;;28.09;48.78;94093.47;5048549;28;20124;-83
2021/06/23 08:26:15;;;;;;;41.35;8.88;;;;;;;28.18;48.36;94080.78;5048460;28;20029;-80
2021/06/23 08:28:44;;;;;;;53.50;8.85;;;;;;;28.28;47.73;94086.47;5053184;28;20530;-80
2021/06/23 08:31:10;;;;;;;40.33;6.93;;;;;;;28.36;41.59;94082.41;5063651;28;20032;-81
2021/06/23 08:33:35;;;;;;;49.15;9.20;;;;;;;28.46;44.21;94092.38;5063284;28;20396;-81
2021/06/23 08:36:01;;;;;;;33.40;7.72;;;;;;;28.56;43.43;94085.94;5068612;28;20053;-80
2021/06/23 08:38:26;;;;;;;42.33;6.95;;;;;;;28.64;44.21;94089.31;5062807;28;20550;-77
2021/06/23 08:40:53;;;;;;;41.33;8.65;;;;;;;28.77;43.42;94092.94;5073319;28;20044;-78
2021/06/23 08:43:19;;;;;;;34.67;8.68;;;;;;;28.83;41.43;94093.22;5053792;28;20029;-77
2021/06/23 08:45:45;;;;;;;36.17;7.72;;;;;;;28.87;40.69;94091.16;5061241;28;20032;-80
2021/06/23 08:48:11;;;;;;;44.63;8.80;;;;;;;28.95;41.12;94087.06;5059763;28;20039;-80
2021/06/23 08:50:39;;;;;;;40.42;8.15;;;;;;;28.96;40.70;94085.88;5060824;28;20025;-78
2021/06/23 08:53:05;;;;;;;34.65;8.65;;;;;;;29.07;41.70;94090.34;5062570;28;20115;-79
2021/06/23 08:55:30;;;;;;;47.88;7.82;;;;;;;29.16;40.60;94096.03;5068284;28;20514;-79
2021/06/23 08:57:58;;;;;;;37.00;7.28;;;;;;;29.22;41.37;94088.84;5064143;28;20029;-79
2021/06/23 09:00:24;;;;;;;45.15;8.55;;;;;;;29.31;42.24;94091.78;5065896;28;20053;-79
2021/06/23 09:02:50;;;;;;;33.70;7.07;;;;;;;29.43;41.17;94097.78;5072780;28;20016;-77
2021/06/23 09:05:17;;;;;;;41.65;7.85;;;;;;;29.49;39.74;94091.31;5061816;28;20025;-76
2021/06/23 09:07:49;;;;;;;46.05;7.45;;;;;;;29.50;39.66;94094.88;5052643;28;20044;-77
2021/06/23 09:10:23;;;;;;;43.15;8.35;;;;;;;29.58;39.54;94098.97;5052508;28;20554;-80
2021/06/23 09:13:04;;;;;;;40.80;7.22;;;;;;;29.62;37.52;94099.66;5059801;28;20389;-80
2021/06/23 09:15:52;;;;;;;33.60;7.97;;;;;;;29.65;37.58;94096.03;5067324;28;20071;-78
2021/06/23 09:18:19;;;;;;;36.63;6.40;;;;;;;29.73;37.16;94099.41;5058741;28;20059;-79
2021/06/23 09:20:46;;;;;;;34.88;7.47;;;;;;;29.85;36.65;94097.94;5073955;28;20029;-79
2021/06/23 09:23:12;;;;;;;32.78;6.55;;;;;;;29.81;37.09;94089.78;5062019;28;20021;-79
2021/06/23 09:25:39;;;;;;;38.03;6.10;;;;;;;29.91;37.07;94104.47;5065726;28;20075;-79
2021/06/23 09:28:13;;;;;;;46.80;6.43;;;;;;;30.03;36.33;94101.00;5059914;28;20052;-78
2021/06/23 09:30:42;;;;;;;30.35;5.65;;;;;;;30.12;36.84;94094.88;5049947;28;20021;-77
2021/06/23 09:33:15;;;;;;;35.70;7.20;;;;;;;30.23;35.90;94083.63;5056727;28;20475;-76
2021/06/23 09:36:03;;;;;;;36.40;5.97;;;;;;;30.32;35.98;94094.78;5063892;28;20056;-77
2021/06/23 09:38:37;;;;;;;41.78;7.38;;;;;;;30.41;35.74;94089.44;5066260;28;20028;-79
2021/06/23 09:41:17;;;;;;;39.33;6.38;;;;;;;30.39;35.00;94100.09;5069977;28;20419;-80
2021/06/23 09:43:43;;;;;;;43.55;5.85;;;;;;;30.45;35.91;94092.84;5066991;28;20032;-79
2021/06/23 09:46:18;;;;;;;39.25;6.78;;;;;;;30.51;35.79;94101.31;5069037;28;20115;-78
2021/06/23 09:48:44;;;;;;;33.67;8.10;;;;;;;30.62;35.93;94095.53;5062192;28;20475;-78
2021/06/23 09:51:15;;;;;;;38.25;6.85;;;;;;;30.72;34.74;94097.19;5050176;28;20057;-77
2021/06/23 09:53:41;;;;;;;33.75;6.25;;;;;;;30.75;34.27;94093.56;5051299;28;20396;-77
2021/06/23 09:56:30;;;;;;;33.58;7.35;;;;;;;30.83;33.97;94100.41;5057493;28;20040;-78
2021/06/23 09:58:56;;;;;;;30.50;7.18;;;;;;;30.91;34.51;94090.75;5057716;28;20119;-78
2021/06/23 10:01:23;;;;;;;26.98;6.45;;;;;;;30.95;33.39;94096.91;5057202;28;20115;-77
2021/06/23 10:04:08;;;;;;;28.95;5.63;;;;;;;30.93;34.60;94096.59;5065685;28;20448;-77
2021/06/23 10:06:35;;;;;;;39.17;6.72;;;;;;;31.02;34.06;94092.41;5056948;28;20103;-77
2021/06/23 10:09:16;;;;;;;40.83;6.13;;;;;;;31.17;34.38;94086.03;5052008;28;20021;-78
2021/06/23 10:11:42;;;;;;;40.37;6.20;;;;;;;31.24;34.38;94090.53;5049998;28;20540;-77
2021/06/23 10:14:09;;;;;;;37.42;8.13;;;;;;;31.39;34.80;94090.88;5050449;28;20084;-78
2021/06/23 10:16:35;;;;;;;37.40;5.38;;;;;;;31.47;33.00;94078.44;5058218;28;20039;-79
2021/06/23 10:19:03;;;;;;;34.75;6.63;;;;;;;31.56;33.85;94088.78;5050678;28;20021;-79
2021/06/23 10:21:32;;;;;;;25.70;5.78;;;;;;;31.55;34.92;94082.50;5064457;28;20052;-79
2021/06/23 10:23:58;;;;;;;29.90;6.25;;;;;;;31.59;33.87;94085.16;5062641;28;20090;-80
2021/06/23 10:26:28;;;;;;;39.20;7.50;;;;;;;31.53;33.09;94084.94;5050580;28;20025;-79
2021/06/23 10:28:55;;;;;;;42.13;6.65;;;;;;;31.42;33.71;94078.97;5050713;28;20052;-80
2021/06/23 10:31:23;;;;;;;44.45;6.82;;;;;;;31.45;35.08;94082.84;5050293;28;20104;-80
2021/06/23 10:33:49;;;;;;;36.00;7.15;;;;;;;31.55;32.46;94082.50;5056264;28;20052;-80
2021/06/23 10:36:15;;;;;;;40.90;7.50;;;;;;;31.65;33.99;94075.13;5064434;28;20060;-79
2021/06/23 10:38:42;;;;;;;32.60;7.03;;;;;;;31.76;32.39;94074.75;5060032;28;20028;-79
2021/06/23 10:41:09;;;;;;;44.50;6.43;;;;;;;31.89;32.86;94083.75;5050071;28;20029;-80
2021/06/23 10:43:35;;;;;;;50.53;6.68;;;;;;;31.92;31.88;94071.84;5049995;28;20087;-80
2021/06/23 10:46:01;;;;;;;36.90;6.85;;;;;;;31.91;32.61;94064.00;5050079;28;20032;-80
2021/06/23 10:48:26;;;;;;;32.15;6.25;;;;;;;31.97;32.55;94070.50;5069436;28;20035;-80
2021/06/23 10:50:52;;;;;;;35.55;6.05;;;;;;;31.83;32.57;94068.22;5069861;28;20043;-80
2021/06/23 10:53:30;;;;;;;25.98;5.93;;;;;;;31.78;31.98;94081.34;5061301;28;20013;-79
2021/06/23 10:55:57;;;;;;;23.88;5.93;;;;;;;31.72;32.58;94074.88;5050145;28;20064;-80
2021/06/23 10:58:34;;;;;;;37.75;6.43;;;;;;;31.61;33.06;94068.16;5053135;28;20027;-80
2021/06/23 11:01:19;;;;;;;30.88;5.85;;;;;;;31.54;32.22;94080.19;5069772;28;20535;-80
2021/06/23 11:04:03;;;;;;;28.67;6.32;;;;;;;31.57;33.81;94080.09;5047067;28;20416;-80
2021/06/23 11:06:46;;;;;;;32.20;6.10;;;;;;;31.62;33.31;94072.47;5068877;28;20024;-78
2021/06/23 11:09:32;;;;;;;30.48;6.70;;;;;;;31.58;33.21;94080.84;5054399;28;20425;-79
2021/06/23 11:11:58;;;;;;;30.80;5.63;;;;;;;31.68;32.35;94074.22;5049589;28;20047;-78
2021/06/23 11:14:32;;;;;;;43.65;6.13;;;;;;;31.78;31.17;94078.59;5049381;28;20041;-78
2021/06/23 11:17:30;;;;;;;44.67;6.57;;;;;;;31.97;31.22;94081.50;5064832;28;20078;-77
2021/06/23 11:19:56;;;;;;;26.65;6.82;;;;;;;32.12;31.81;94073.53;5052975;28;20032;-78
2021/06/23 11:22:21;;;;;;;31.38;5.65;;;;;;;32.34;30.91;94079.06;5061409;28;20091;-77
2021/06/23 11:25:21;;;;;;;39.72;6.15;;;;;;;32.44;31.07;94075.16;5068692;28;20496;-77
2021/06/23 11:28:05;;;;;;;41.58;6.30;;;;;;;32.52;31.61;94068.16;5052520;28;20043;-78
2021/06/23 11:30:31;;;;;;;32.42;5.95;;;;;;;32.63;31.49;94070.56;5064559;28;20040;-77
2021/06/23 11:32:56;;;;;;;47.55;6.70;;;;;;;32.87;30.55;94070.88;5066587;28;20019;-79
2021/06/23 11:35:21;;;;;;;37.95;6.18;;;;;;;32.98;29.60;94070.44;5053063;28;20029;-78
2021/06/23 11:37:47;;;;;;;31.88;6.35;;;;;;;32.98;28.15;94071.22;5070862;28;20032;-77
2021/06/23 11:40:15;;;;;;;29.45;5.82;;;;;;;33.09;29.49;94067.28;5055489;28;20032;-76
2021/06/23 11:42:40;;;;;;;33.85;7.20;;;;;;;33.10;30.59;94071.59;5054390;28;20028;-79